sensor_id;sensor_type;location;lat;lon;timestamp;pressure;altitude;pressure_sealevel;temperature;humidity
61961;BME280;47923;42.506;24.192;2022-07-30T00:01:04;95360.31;;;16.46;61.68
61961;BME280;47923;42.506;24.192;2022-07-30T00:03:29;95586.81;;;17.82;62.47
61961;BME280;47923;42.506;24.192;2022-07-30T00:05:55;95396.00;;;16.77;62.74
61961;BME280;47923;42.506;24.192;2022-07-30T00:08:22;95613.81;;;18.25;62.60
61961;BME280;47923;42.506;24.192;2022-07-30T00:10:48;95525.00;;;17.44;62.59
61961;BME280;47923;42.506;24.192;2022-07-30T00:13:13;95558.44;;;17.62;62.96
61961;BME280;47923;42.506;24.192;2022-07-30T00:15:39;95445.78;;;16.92;62.93
61961;BME280;47923;42.506;24.192;2022-07-30T00:18:04;95413.19;;;16.70;63.18
61961;BME280;47923;42.506;24.192;2022-07-30T00:20:30;95445.03;;;16.91;63.28
61961;BME280;47923;42.506;24.192;2022-07-30T00:22:55;95416.69;;;16.71;63.21
61961;BME280;47923;42.506;24.192;2022-07-30T00:25:21;95601.94;;;17.98;63.54
61961;BME280;47923;42.506;24.192;2022-07-30T00:27:47;95581.81;;;17.74;64.16
61961;BME280;47923;42.506;24.192;2022-07-30T00:30:12;95552.19;;;17.65;64.05
61961;BME280;47923;42.506;24.192;2022-07-30T00:32:38;95630.75;;;18.06;64.19
61961;BME280;47923;42.506;24.192;2022-07-30T00:35:04;95522.28;;;17.44;64.71
61961;BME280;47923;42.506;24.192;2022-07-30T00:37:30;95550.66;;;17.60;64.22
61961;BME280;47923;42.506;24.192;2022-07-30T00:39:55;95516.06;;;17.39;64.71
61961;BME280;47923;42.506;24.192;2022-07-30T00:42:21;95613.69;;;17.94;64.65
61961;BME280;47923;42.506;24.192;2022-07-30T00:44:53;95626.25;;;17.85;65.37
61961;BME280;47923;42.506;24.192;2022-07-30T00:47:19;95331.75;;;15.88;65.67
61961;BME280;47923;42.506;24.192;2022-07-30T00:49:45;95432.00;;;16.40;66.04
61961;BME280;47923;42.506;24.192;2022-07-30T00:52:12;95559.91;;;17.11;66.42
61961;BME280;47923;42.506;24.192;2022-07-30T00:54:37;95416.16;;;16.06;66.25
61961;BME280;47923;42.506;24.192;2022-07-30T00:57:03;95501.63;;;16.73;66.63
61961;BME280;47923;42.506;24.192;2022-07-30T00:59:28;95495.78;;;16.67;66.04
61961;BME280;47923;42.506;24.192;2022-07-30T01:01:55;95488.06;;;16.48;67.17
61961;BME280;47923;42.506;24.192;2022-07-30T01:04:21;95391.25;;;16.04;67.04
61961;BME280;47923;42.506;24.192;2022-07-30T01:06:46;95546.72;;;16.99;66.41
61961;BME280;47923;42.506;24.192;2022-07-30T01:09:12;95403.00;;;15.72;65.54
61961;BME280;47923;42.506;24.192;2022-07-30T01:11:40;95391.63;;;16.06;66.87
61961;BME280;47923;42.506;24.192;2022-07-30T01:14:07;95450.34;;;16.21;67.33
61961;BME280;47923;42.506;24.192;2022-07-30T01:16:37;95599.19;;;17.35;68.02
61961;BME280;47923;42.506;24.192;2022-07-30T01:19:10;95519.13;;;16.79;68.24
61961;BME280;47923;42.506;24.192;2022-07-30T01:22:15;95513.28;;;16.77;67.61
61961;BME280;47923;42.506;24.192;2022-07-30T01:25:04;95591.00;;;17.31;67.77
61961;BME280;47923;42.506;24.192;2022-07-30T01:27:34;95479.88;;;16.44;67.34
61961;BME280;47923;42.506;24.192;2022-07-30T01:30:03;95414.19;;;16.07;67.20
61961;BME280;47923;42.506;24.192;2022-07-30T01:32:29;95493.13;;;16.42;67.75
61961;BME280;47923;42.506;24.192;2022-07-30T01:34:57;95521.47;;;16.66;68.21
61961;BME280;47923;42.506;24.192;2022-07-30T01:37:24;95495.50;;;16.22;68.53
61961;BME280;47923;42.506;24.192;2022-07-30T01:39:51;95325.66;;;15.20;68.45
61961;BME280;47923;42.506;24.192;2022-07-30T01:42:18;95530.88;;;16.54;67.54
61961;BME280;47923;42.506;24.192;2022-07-30T01:44:45;95600.53;;;16.98;68.12
61961;BME280;47923;42.506;24.192;2022-07-30T01:47:12;95496.34;;;16.16;68.31
61961;BME280;47923;42.506;24.192;2022-07-30T01:49:39;95594.69;;;16.93;68.87
61961;BME280;47923;42.506;24.192;2022-07-30T01:52:07;95576.41;;;16.79;69.86
61961;BME280;47923;42.506;24.192;2022-07-30T01:54:34;95504.88;;;16.18;69.50
61961;BME280;47923;42.506;24.192;2022-07-30T01:57:00;95388.25;;;15.27;69.57
61961;BME280;47923;42.506;24.192;2022-07-30T01:59:27;95486.63;;;15.86;69.82
61961;BME280;47923;42.506;24.192;2022-07-30T02:01:54;95387.47;;;15.27;69.81
61961;BME280;47923;42.506;24.192;2022-07-30T02:04:20;95548.06;;;16.23;69.92
61961;BME280;47923;42.506;24.192;2022-07-30T02:06:54;95606.84;;;16.56;69.84
61961;BME280;47923;42.506;24.192;2022-07-30T02:09:28;95516.97;;;16.13;70.03
61961;BME280;47923;42.506;24.192;2022-07-30T02:11:59;95367.25;;;15.03;70.40
61961;BME280;47923;42.506;24.192;2022-07-30T02:15:06;95576.13;;;16.34;71.24
61961;BME280;47923;42.506;24.192;2022-07-30T02:18:02;95513.47;;;15.91;69.94
61961;BME280;47923;42.506;24.192;2022-07-30T02:20:29;95520.88;;;15.77;69.48
61961;BME280;47923;42.506;24.192;2022-07-30T02:23:04;95588.56;;;16.35;71.48
61961;BME280;47923;42.506;24.192;2022-07-30T02:25:32;95535.69;;;15.79;70.95
61961;BME280;47923;42.506;24.192;2022-07-30T02:28:01;95574.97;;;16.32;70.95
61961;BME280;47923;42.506;24.192;2022-07-30T02:30:29;95524.38;;;15.98;71.19
61961;BME280;47923;42.506;24.192;2022-07-30T02:33:02;95496.75;;;15.71;71.29
61961;BME280;47923;42.506;24.192;2022-07-30T02:35:28;95485.88;;;15.43;71.60
61961;BME280;47923;42.506;24.192;2022-07-30T02:37:56;95494.06;;;15.64;71.65
61961;BME280;47923;42.506;24.192;2022-07-30T02:40:22;95490.16;;;15.62;72.31
61961;BME280;47923;42.506;24.192;2022-07-30T02:42:50;95443.84;;;15.40;71.24
61961;BME280;47923;42.506;24.192;2022-07-30T02:45:17;95341.97;;;14.52;71.56
61961;BME280;47923;42.506;24.192;2022-07-30T02:47:50;95561.72;;;16.12;70.88
61961;BME280;47923;42.506;24.192;2022-07-30T02:50:18;95406.53;;;15.09;70.85
61961;BME280;47923;42.506;24.192;2022-07-30T02:52:45;95508.03;;;15.77;71.81
61961;BME280;47923;42.506;24.192;2022-07-30T02:55:11;95283.66;;;14.35;72.40
61961;BME280;47923;42.506;24.192;2022-07-30T02:57:40;95305.78;;;14.37;71.67
61961;BME280;47923;42.506;24.192;2022-07-30T03:00:08;95387.06;;;14.85;73.22
61961;BME280;47923;42.506;24.192;2022-07-30T03:02:34;95431.38;;;14.86;73.95
61961;BME280;47923;42.506;24.192;2022-07-30T03:05:02;95467.94;;;14.99;73.77
61961;BME280;47923;42.506;24.192;2022-07-30T03:07:29;95488.13;;;15.12;72.81
61961;BME280;47923;42.506;24.192;2022-07-30T03:09:55;95233.81;;;13.57;72.65
61961;BME280;47923;42.506;24.192;2022-07-30T03:12:22;95448.84;;;14.78;73.48
61961;BME280;47923;42.506;24.192;2022-07-30T03:14:48;95455.47;;;15.05;73.75
61961;BME280;47923;42.506;24.192;2022-07-30T03:17:15;95402.19;;;14.72;73.58
61961;BME280;47923;42.506;24.192;2022-07-30T03:19:41;95401.78;;;14.67;74.18
61961;BME280;47923;42.506;24.192;2022-07-30T03:22:09;95515.78;;;15.39;73.95
61961;BME280;47923;42.506;24.192;2022-07-30T03:24:37;95578.47;;;15.75;74.30
61961;BME280;47923;42.506;24.192;2022-07-30T03:27:04;95451.19;;;14.90;73.84
61961;BME280;47923;42.506;24.192;2022-07-30T03:29:31;95525.13;;;15.45;72.67
61961;BME280;47923;42.506;24.192;2022-07-30T03:31:59;95515.41;;;15.59;73.60
61961;BME280;47923;42.506;24.192;2022-07-30T03:34:25;95524.38;;;15.77;72.81
61961;BME280;47923;42.506;24.192;2022-07-30T03:36:52;95495.97;;;15.71;72.21
61961;BME280;47923;42.506;24.192;2022-07-30T03:39:18;95441.09;;;15.19;72.14
61961;BME280;47923;42.506;24.192;2022-07-30T03:41:46;95545.78;;;16.07;72.78
61961;BME280;47923;42.506;24.192;2022-07-30T03:44:12;95188.09;;;13.69;72.52
61961;BME280;47923;42.506;24.192;2022-07-30T03:46:40;95434.13;;;15.39;71.74
61961;BME280;47923;42.506;24.192;2022-07-30T03:49:07;95316.34;;;14.75;71.87
61961;BME280;47923;42.506;24.192;2022-07-30T03:51:35;95546.53;;;16.25;71.43
61961;BME280;47923;42.506;24.192;2022-07-30T03:54:02;95479.97;;;16.16;70.26
61961;BME280;47923;42.506;24.192;2022-07-30T03:56:28;95324.09;;;15.33;68.77
61961;BME280;47923;42.506;24.192;2022-07-30T03:58:54;95467.09;;;16.30;68.31
61961;BME280;47923;42.506;24.192;2022-07-30T04:01:24;95447.53;;;16.53;68.53
61961;BME280;47923;42.506;24.192;2022-07-30T04:03:50;95448.91;;;17.94;64.63
61961;BME280;47923;42.506;24.192;2022-07-30T04:06:15;95446.13;;;20.40;56.57
61961;BME280;47923;42.506;24.192;2022-07-30T04:08:41;95511.66;;;22.65;50.04
61961;BME280;47923;42.506;24.192;2022-07-30T04:11:06;95509.34;;;24.19;46.46
61961;BME280;47923;42.506;24.192;2022-07-30T04:13:31;95517.84;;;25.25;42.50
61961;BME280;47923;42.506;24.192;2022-07-30T04:18:34;95475.81;;;26.84;38.13
61961;BME280;47923;42.506;24.192;2022-07-30T04:21:06;95521.19;;;27.84;36.68
61961;BME280;47923;42.506;24.192;2022-07-30T04:23:33;95499.19;;;28.52;34.95
61961;BME280;47923;42.506;24.192;2022-07-30T04:26:00;95509.66;;;29.26;33.47
61961;BME280;47923;42.506;24.192;2022-07-30T04:28:26;95579.81;;;28.91;34.80
61961;BME280;47923;42.506;24.192;2022-07-30T04:30:53;95477.59;;;28.23;34.90
61961;BME280;47923;42.506;24.192;2022-07-30T04:33:19;95517.13;;;29.34;33.80
61961;BME280;47923;42.506;24.192;2022-07-30T04:35:45;95563.66;;;30.43;32.35
61961;BME280;47923;42.506;24.192;2022-07-30T04:38:10;95464.63;;;30.68;30.99
61961;BME280;47923;42.506;24.192;2022-07-30T04:40:39;95506.72;;;31.42;30.15
61961;BME280;47923;42.506;24.192;2022-07-30T04:43:05;95577.41;;;32.54;29.02
61961;BME280;47923;42.506;24.192;2022-07-30T04:45:30;95397.38;;;32.46;27.49
61961;BME280;47923;42.506;24.192;2022-07-30T04:47:56;95323.97;;;32.62;26.17
61961;BME280;47923;42.506;24.192;2022-07-30T04:50:24;95477.75;;;34.58;24.70
61961;BME280;47923;42.506;24.192;2022-07-30T04:52:52;95472.16;;;35.11;24.23
61961;BME280;47923;42.506;24.192;2022-07-30T04:55:19;95510.13;;;35.59;24.09
61961;BME280;47923;42.506;24.192;2022-07-30T04:57:48;95561.53;;;35.48;24.24
61961;BME280;47923;42.506;24.192;2022-07-30T05:00:14;95399.81;;;33.37;25.70
61961;BME280;47923;42.506;24.192;2022-07-30T05:02:41;95462.66;;;33.70;25.69
61961;BME280;47923;42.506;24.192;2022-07-30T05:05:09;95391.94;;;35.21;23.59
61961;BME280;47923;42.506;24.192;2022-07-30T05:07:37;95485.75;;;36.03;23.07
61961;BME280;47923;42.506;24.192;2022-07-30T05:10:05;95371.16;;;34.64;23.59
61961;BME280;47923;42.506;24.192;2022-07-30T05:12:34;95479.72;;;35.27;24.02
61961;BME280;47923;42.506;24.192;2022-07-30T05:15:03;95499.13;;;35.91;22.79
61961;BME280;47923;42.506;24.192;2022-07-30T05:17:29;95464.06;;;37.41;21.34
61961;BME280;47923;42.506;24.192;2022-07-30T05:19:54;95524.31;;;39.21;20.20
61961;BME280;47923;42.506;24.192;2022-07-30T05:22:20;95480.03;;;39.16;19.47
61961;BME280;47923;42.506;24.192;2022-07-30T05:24:45;95478.16;;;38.71;20.03
61961;BME280;47923;42.506;24.192;2022-07-30T05:27:10;95429.38;;;37.78;20.94
61961;BME280;47923;42.506;24.192;2022-07-30T05:29:37;95501.56;;;38.13;20.39
61961;BME280;47923;42.506;24.192;2022-07-30T05:32:02;95451.25;;;37.72;21.06
61961;BME280;47923;42.506;24.192;2022-07-30T05:34:28;95489.97;;;38.83;19.74
61961;BME280;47923;42.506;24.192;2022-07-30T05:36:53;95425.97;;;39.74;18.24
61961;BME280;47923;42.506;24.192;2022-07-30T05:39:19;95483.53;;;41.06;16.85
61961;BME280;47923;42.506;24.192;2022-07-30T05:41:44;95490.50;;;41.05;17.09
61961;BME280;47923;42.506;24.192;2022-07-30T05:44:10;95459.72;;;40.58;17.70
61961;BME280;47923;42.506;24.192;2022-07-30T05:46:35;95489.03;;;40.76;17.59
61961;BME280;47923;42.506;24.192;2022-07-30T05:49:01;95506.13;;;41.42;17.18
61961;BME280;47923;42.506;24.192;2022-07-30T05:51:26;95494.81;;;40.26;18.28
61961;BME280;47923;42.506;24.192;2022-07-30T05:53:52;95340.72;;;39.99;16.91
61961;BME280;47923;42.506;24.192;2022-07-30T05:56:17;95430.28;;;42.58;15.59
61961;BME280;47923;42.506;24.192;2022-07-30T05:58:43;95479.09;;;43.52;15.50
61961;BME280;47923;42.506;24.192;2022-07-30T06:01:08;95284.03;;;43.07;14.96
61961;BME280;47923;42.506;24.192;2022-07-30T06:03:34;95497.44;;;44.51;14.02
61961;BME280;47923;42.506;24.192;2022-07-30T06:06:02;95373.81;;;43.60;13.93
61961;BME280;47923;42.506;24.192;2022-07-30T06:08:27;95350.28;;;42.36;14.03
61961;BME280;47923;42.506;24.192;2022-07-30T06:10:53;95484.66;;;45.11;14.01
61961;BME280;47923;42.506;24.192;2022-07-30T06:13:18;95391.31;;;45.39;12.33
61961;BME280;47923;42.506;24.192;2022-07-30T06:15:43;95449.91;;;44.01;13.80
61961;BME280;47923;42.506;24.192;2022-07-30T06:18:09;95459.28;;;43.94;13.69
61961;BME280;47923;42.506;24.192;2022-07-30T06:20:34;95400.63;;;43.74;13.96
61961;BME280;47923;42.506;24.192;2022-07-30T06:23:00;95465.09;;;46.35;12.71
61961;BME280;47923;42.506;24.192;2022-07-30T06:25:25;95415.34;;;46.48;11.61
61961;BME280;47923;42.506;24.192;2022-07-30T06:27:51;95421.09;;;45.92;12.06
61961;BME280;47923;42.506;24.192;2022-07-30T06:30:16;95472.72;;;46.23;11.97
61961;BME280;47923;42.506;24.192;2022-07-30T06:32:42;95478.19;;;46.77;11.52
61961;BME280;47923;42.506;24.192;2022-07-30T06:35:09;95469.59;;;46.28;12.27
61961;BME280;47923;42.506;24.192;2022-07-30T06:37:35;95430.25;;;46.66;12.04
61961;BME280;47923;42.506;24.192;2022-07-30T06:40:00;95517.88;;;49.17;10.66
61961;BME280;47923;42.506;24.192;2022-07-30T06:42:26;95461.81;;;47.67;10.66
61961;BME280;47923;42.506;24.192;2022-07-30T06:44:52;95455.41;;;47.37;11.23
61961;BME280;47923;42.506;24.192;2022-07-30T06:47:21;95440.16;;;46.55;11.81
61961;BME280;47923;42.506;24.192;2022-07-30T06:49:50;95512.78;;;49.28;10.61
61961;BME280;47923;42.506;24.192;2022-07-30T06:52:16;95439.81;;;50.11;10.16
61961;BME280;47923;42.506;24.192;2022-07-30T06:54:42;95476.00;;;50.88;9.50
61961;BME280;47923;42.506;24.192;2022-07-30T06:57:07;95420.16;;;48.37;10.45
61961;BME280;47923;42.506;24.192;2022-07-30T06:59:33;95422.56;;;49.64;9.98
61961;BME280;47923;42.506;24.192;2022-07-30T07:01:58;95491.78;;;51.12;9.21
61961;BME280;47923;42.506;24.192;2022-07-30T07:04:24;95467.38;;;50.27;9.55
61961;BME280;47923;42.506;24.192;2022-07-30T07:06:49;95418.66;;;49.24;10.02
61961;BME280;47923;42.506;24.192;2022-07-30T07:09:14;95458.91;;;48.38;10.26
61961;BME280;47923;42.506;24.192;2022-07-30T07:11:40;95431.53;;;47.23;11.48
61961;BME280;47923;42.506;24.192;2022-07-30T07:14:05;95288.38;;;46.90;11.00
61961;BME280;47923;42.506;24.192;2022-07-30T07:16:31;95358.69;;;47.55;11.18
61961;BME280;47923;42.506;24.192;2022-07-30T07:18:57;95466.75;;;47.06;11.96
61961;BME280;47923;42.506;24.192;2022-07-30T07:21:22;95393.00;;;48.38;10.45
61961;BME280;47923;42.506;24.192;2022-07-30T07:23:48;95447.81;;;49.89;9.82
61961;BME280;47923;42.506;24.192;2022-07-30T07:26:14;95488.59;;;50.95;10.07
61961;BME280;47923;42.506;24.192;2022-07-30T07:28:40;95462.44;;;49.36;10.43
61961;BME280;47923;42.506;24.192;2022-07-30T07:31:07;95429.94;;;49.55;10.06
61961;BME280;47923;42.506;24.192;2022-07-30T07:33:32;95419.69;;;46.49;11.73
61961;BME280;47923;42.506;24.192;2022-07-30T07:35:58;95361.81;;;46.10;11.92
61961;BME280;47923;42.506;24.192;2022-07-30T07:38:23;95468.38;;;45.49;12.54
61961;BME280;47923;42.506;24.192;2022-07-30T07:40:49;95282.00;;;44.90;12.44
61961;BME280;47923;42.506;24.192;2022-07-30T07:43:14;95440.84;;;46.26;11.91
61961;BME280;47923;42.506;24.192;2022-07-30T07:45:43;95386.47;;;46.73;11.90
61961;BME280;47923;42.506;24.192;2022-07-30T07:48:11;95425.94;;;48.28;11.26
61961;BME280;47923;42.506;24.192;2022-07-30T07:50:37;95400.31;;;48.08;10.71
61961;BME280;47923;42.506;24.192;2022-07-30T07:53:03;95425.31;;;47.46;11.02
61961;BME280;47923;42.506;24.192;2022-07-30T07:55:29;95449.25;;;48.12;11.30
61961;BME280;47923;42.506;24.192;2022-07-30T07:57:54;95494.50;;;48.35;10.67
61961;BME280;47923;42.506;24.192;2022-07-30T08:00:20;95464.44;;;49.01;10.11
61961;BME280;47923;42.506;24.192;2022-07-30T08:02:46;95440.88;;;48.69;9.90
61961;BME280;47923;42.506;24.192;2022-07-30T08:05:12;95441.16;;;49.39;10.50
61961;BME280;47923;42.506;24.192;2022-07-30T08:07:39;95442.81;;;50.13;9.09
61961;BME280;47923;42.506;24.192;2022-07-30T08:10:05;95441.41;;;49.67;9.40
61961;BME280;47923;42.506;24.192;2022-07-30T08:12:31;95361.78;;;49.91;9.83
61961;BME280;47923;42.506;24.192;2022-07-30T08:14:57;95456.03;;;49.83;9.94
61961;BME280;47923;42.506;24.192;2022-07-30T08:17:22;95324.88;;;49.15;10.18
61961;BME280;47923;42.506;24.192;2022-07-30T08:19:48;95433.16;;;49.38;10.27
61961;BME280;47923;42.506;24.192;2022-07-30T08:22:14;95297.16;;;46.63;10.98
61961;BME280;47923;42.506;24.192;2022-07-30T08:24:39;95445.31;;;47.46;11.32
61961;BME280;47923;42.506;24.192;2022-07-30T08:27:05;95438.00;;;48.48;10.54
61961;BME280;47923;42.506;24.192;2022-07-30T08:29:30;95402.91;;;49.13;10.16
61961;BME280;47923;42.506;24.192;2022-07-30T08:31:56;95446.34;;;48.98;10.06
61961;BME280;47923;42.506;24.192;2022-07-30T08:34:21;95440.91;;;49.70;9.57
61961;BME280;47923;42.506;24.192;2022-07-30T08:36:47;95282.56;;;47.93;10.95
61961;BME280;47923;42.506;24.192;2022-07-30T08:39:12;95409.81;;;48.87;9.81
61961;BME280;47923;42.506;24.192;2022-07-30T08:41:40;95411.63;;;49.04;10.52
61961;BME280;47923;42.506;24.192;2022-07-30T08:44:09;95305.25;;;48.88;9.78
61961;BME280;47923;42.506;24.192;2022-07-30T08:46:35;95346.13;;;48.88;9.99
61961;BME280;47923;42.506;24.192;2022-07-30T08:49:03;95394.41;;;47.44;10.65
61961;BME280;47923;42.506;24.192;2022-07-30T08:51:29;95431.13;;;48.20;10.52
61961;BME280;47923;42.506;24.192;2022-07-30T08:53:54;95354.94;;;48.81;10.19
61961;BME280;47923;42.506;24.192;2022-07-30T08:56:21;95464.78;;;46.31;11.88
61961;BME280;47923;42.506;24.192;2022-07-30T08:58:47;95415.16;;;46.17;12.03
61961;BME280;47923;42.506;24.192;2022-07-30T09:01:13;95167.72;;;45.32;11.70
61961;BME280;47923;42.506;24.192;2022-07-30T09:03:39;95303.88;;;48.44;10.25
61961;BME280;47923;42.506;24.192;2022-07-30T09:06:05;95403.91;;;49.18;9.78
61961;BME280;47923;42.506;24.192;2022-07-30T09:08:30;95348.94;;;48.77;9.86
61961;BME280;47923;42.506;24.192;2022-07-30T09:10:57;95355.44;;;48.77;9.81
61961;BME280;47923;42.506;24.192;2022-07-30T09:13:26;95446.69;;;47.35;11.03
61961;BME280;47923;42.506;24.192;2022-07-30T09:15:53;95395.91;;;46.27;11.76
61961;BME280;47923;42.506;24.192;2022-07-30T09:18:50;95440.72;;;47.72;10.66
61961;BME280;47923;42.506;24.192;2022-07-30T09:24:41;95266.00;;;44.95;12.41
61961;BME280;47923;42.506;24.192;2022-07-30T09:27:08;95375.75;;;46.93;10.92
61961;BME280;47923;42.506;24.192;2022-07-30T09:29:34;95296.88;;;45.71;11.30
61961;BME280;47923;42.506;24.192;2022-07-30T09:32:02;95198.13;;;44.47;11.87
61961;BME280;47923;42.506;24.192;2022-07-30T09:34:33;95434.44;;;46.55;11.61
61961;BME280;47923;42.506;24.192;2022-07-30T09:37:38;95453.22;;;48.07;10.08
61961;BME280;47923;42.506;24.192;2022-07-30T09:40:15;94906.50;;;45.17;10.42
61961;BME280;47923;42.506;24.192;2022-07-30T09:42:41;95214.03;;;48.39;9.10
61961;BME280;47923;42.506;24.192;2022-07-30T09:45:09;95405.84;;;47.85;10.71
61961;BME280;47923;42.506;24.192;2022-07-30T09:47:40;95374.50;;;47.56;10.36
61961;BME280;47923;42.506;24.192;2022-07-30T09:50:07;95387.06;;;46.91;11.17
61961;BME280;47923;42.506;24.192;2022-07-30T09:52:35;95391.31;;;45.76;11.76
61961;BME280;47923;42.506;24.192;2022-07-30T09:55:00;95338.22;;;46.09;11.53
61961;BME280;47923;42.506;24.192;2022-07-30T09:57:26;95350.38;;;46.87;11.08
61961;BME280;47923;42.506;24.192;2022-07-30T09:59:52;95319.78;;;45.54;11.62
61961;BME280;47923;42.506;24.192;2022-07-30T10:02:17;95175.09;;;45.84;10.47
61961;BME280;47923;42.506;24.192;2022-07-30T10:04:43;95325.31;;;48.55;10.19
61961;BME280;47923;42.506;24.192;2022-07-30T10:07:20;95360.56;;;48.79;9.65
61961;BME280;47923;42.506;24.192;2022-07-30T10:09:49;95315.09;;;47.76;10.38
61961;BME280;47923;42.506;24.192;2022-07-30T10:12:16;95294.50;;;47.68;9.67
61961;BME280;47923;42.506;24.192;2022-07-30T10:14:46;95346.41;;;48.05;9.98
61961;BME280;47923;42.506;24.192;2022-07-30T10:17:13;95285.19;;;46.16;10.82
61961;BME280;47923;42.506;24.192;2022-07-30T10:19:39;95235.19;;;45.20;11.77
61961;BME280;47923;42.506;24.192;2022-07-30T10:22:04;95350.00;;;45.30;11.80
61961;BME280;47923;42.506;24.192;2022-07-30T10:24:30;95361.50;;;44.51;12.95
61961;BME280;47923;42.506;24.192;2022-07-30T10:26:59;95321.38;;;45.01;12.21
61961;BME280;47923;42.506;24.192;2022-07-30T10:29:25;95380.72;;;45.49;12.56
61961;BME280;47923;42.506;24.192;2022-07-30T10:31:50;95264.38;;;45.01;12.25
61961;BME280;47923;42.506;24.192;2022-07-30T10:34:17;95327.38;;;44.96;12.40
61961;BME280;47923;42.506;24.192;2022-07-30T10:36:51;95318.75;;;43.90;12.60
61961;BME280;47923;42.506;24.192;2022-07-30T10:39:24;95256.28;;;42.32;13.93
61961;BME280;47923;42.506;24.192;2022-07-30T10:47:20;95195.84;;;37.95;18.03
61961;BME280;47923;42.506;24.192;2022-07-30T10:50:11;95350.03;;;38.61;18.14
61961;BME280;47923;42.506;24.192;2022-07-30T10:52:42;95135.22;;;36.75;18.59
61961;BME280;47923;42.506;24.192;2022-07-30T10:55:13;95359.41;;;37.04;20.38
61961;BME280;47923;42.506;24.192;2022-07-30T11:00:59;95327.44;;;35.89;21.11
61961;BME280;47923;42.506;24.192;2022-07-30T11:03:26;95324.00;;;35.28;21.99
61961;BME280;47923;42.506;24.192;2022-07-30T11:08:42;95331.72;;;35.47;21.87
61961;BME280;47923;42.506;24.192;2022-07-30T11:16:18;95268.53;;;34.03;22.49
61961;BME280;47923;42.506;24.192;2022-07-30T11:19:13;95335.97;;;34.16;23.03
61961;BME280;47923;42.506;24.192;2022-07-30T11:21:45;95286.97;;;33.70;23.69
61961;BME280;47923;42.506;24.192;2022-07-30T11:24:42;95314.44;;;33.83;23.48
61961;BME280;47923;42.506;24.192;2022-07-30T11:27:08;95318.22;;;33.86;23.02
61961;BME280;47923;42.506;24.192;2022-07-30T11:29:36;95232.84;;;33.45;23.50
61961;BME280;47923;42.506;24.192;2022-07-30T11:32:26;95302.25;;;33.69;23.84
61961;BME280;47923;42.506;24.192;2022-07-30T11:35:17;95215.41;;;33.00;23.52
61961;BME280;47923;42.506;24.192;2022-07-30T11:45:44;95223.00;;;33.05;23.79
61961;BME280;47923;42.506;24.192;2022-07-30T11:48:12;95282.00;;;33.30;23.74
61961;BME280;47923;42.506;24.192;2022-07-30T11:50:38;95265.78;;;33.00;24.41
61961;BME280;47923;42.506;24.192;2022-07-30T11:53:09;95221.78;;;32.50;24.05
61961;BME280;47923;42.506;24.192;2022-07-30T11:55:43;95049.16;;;31.16;23.96
61961;BME280;47923;42.506;24.192;2022-07-30T11:58:21;95047.38;;;31.13;24.78
61961;BME280;47923;42.506;24.192;2022-07-30T12:00:48;95281.25;;;32.67;24.67
61961;BME280;47923;42.506;24.192;2022-07-30T12:03:16;95217.13;;;32.02;24.80
61961;BME280;47923;42.506;24.192;2022-07-30T12:05:42;95291.94;;;32.41;24.51
61961;BME280;47923;42.506;24.192;2022-07-30T12:08:09;95116.25;;;31.44;24.35
61961;BME280;47923;42.506;24.192;2022-07-30T12:10:35;95103.75;;;31.23;24.53
61961;BME280;47923;42.506;24.192;2022-07-30T12:13:07;95281.19;;;32.23;24.13
61961;BME280;47923;42.506;24.192;2022-07-30T12:15:34;95258.06;;;32.22;24.30
61961;BME280;47923;42.506;24.192;2022-07-30T12:18:00;95174.22;;;31.83;24.02
61961;BME280;47923;42.506;24.192;2022-07-30T12:20:26;95082.19;;;31.23;23.76
61961;BME280;47923;42.506;24.192;2022-07-30T12:22:52;95137.56;;;31.53;23.91
61961;BME280;47923;42.506;24.192;2022-07-30T12:25:18;95276.13;;;32.27;23.70
61961;BME280;47923;42.506;24.192;2022-07-30T12:27:45;95116.72;;;31.37;23.90
61961;BME280;47923;42.506;24.192;2022-07-30T12:30:15;95147.22;;;31.63;23.95
61961;BME280;47923;42.506;24.192;2022-07-30T12:32:44;95130.97;;;31.56;23.60
61961;BME280;47923;42.506;24.192;2022-07-30T12:35:10;95058.03;;;31.20;23.51
61961;BME280;47923;42.506;24.192;2022-07-30T12:37:37;95027.56;;;31.05;23.83
61961;BME280;47923;42.506;24.192;2022-07-30T12:40:13;95235.00;;;32.33;23.61
61961;BME280;47923;42.506;24.192;2022-07-30T12:42:53;95194.38;;;31.44;24.06
61961;BME280;47923;42.506;24.192;2022-07-30T12:45:29;95175.81;;;31.35;23.88
61961;BME280;47923;42.506;24.192;2022-07-30T12:47:56;95182.97;;;31.48;24.37
61961;BME280;47923;42.506;24.192;2022-07-30T12:50:23;95231.16;;;32.19;23.83
61961;BME280;47923;42.506;24.192;2022-07-30T12:52:50;95216.94;;;32.28;24.50
61961;BME280;47923;42.506;24.192;2022-07-30T12:55:18;95019.66;;;30.81;24.07
61961;BME280;47923;42.506;24.192;2022-07-30T12:57:58;95228.06;;;32.00;24.11
61961;BME280;47923;42.506;24.192;2022-07-30T13:00:43;95068.41;;;31.03;24.61
61961;BME280;47923;42.506;24.192;2022-07-30T13:03:21;95081.97;;;31.38;23.94
61961;BME280;47923;42.506;24.192;2022-07-30T13:05:50;95116.53;;;31.69;24.08
61961;BME280;47923;42.506;24.192;2022-07-30T13:08:16;95107.69;;;31.81;24.06
61961;BME280;47923;42.506;24.192;2022-07-30T13:10:59;95170.41;;;32.31;23.74
61961;BME280;47923;42.506;24.192;2022-07-30T13:13:28;95173.97;;;32.31;23.48
61961;BME280;47923;42.506;24.192;2022-07-30T13:15:59;95055.09;;;31.57;24.02
61961;BME280;47923;42.506;24.192;2022-07-30T13:18:29;94601.63;;;28.78;24.22
61961;BME280;47923;42.506;24.192;2022-07-30T13:20:56;95113.50;;;32.17;23.46
61961;BME280;47923;42.506;24.192;2022-07-30T13:23:22;95131.31;;;32.08;23.68
61961;BME280;47923;42.506;24.192;2022-07-30T13:25:48;95078.50;;;31.82;23.98